Terminal Aerodrome Forecast
Issued by NWS Wichita, KS

Home | Current Version | Previous Version | Graphics & Text | Print | Product List | Glossary On
Versions: 1 2 3 4 5 6 7 8 9 10 11 12
000
FTUS43 KICT 270500
TAFICT
TAF
KICT 270520Z 2706/2806 18006KT P6SM BKN120
     FM270700 VRB05KT P6SM BKN100
     FM271100 04014G19KT P6SM BKN080
     FM280100 02010KT P6SM BKN080=

USA.gov is the U.S. government's official web portal to all federal, state and local government web resources and services.